Time;durP1;ratioP1;P1;durP2;ratioP2;P2;SDS_P1;SDS_P2;PMS_P1;PMS_P2;Temp;Humidity;BMP_temperature;BMP_pressure;BME280_temperature;BME280_humidity;BME280_pressure;Samples;Min_cycle;Max_cycle;Signal;HPM_P1;HPM_P2
2021/12/22 00:00:56;;;;;;;132.50;61.65;;;;;;;-4.81;100.00;99878.88;2078636;28;20258;-76
2021/12/22 00:01:59;;;;;;;140.25;62.63;;;;;;;-4.79;100.00;99881.28;2094188;28;20712;-76
2021/12/22 00:03:00;;;;;;;148.73;63.00;;;;;;;-4.80;100.00;99877.06;2085896;28;20253;-76
2021/12/22 00:04:03;;;;;;;144.13;61.35;;;;;;;-4.81;100.00;99871.06;2078029;28;20226;-76
2021/12/22 00:05:06;;;;;;;140.80;61.97;;;;;;;-4.78;100.00;99873.31;2078397;28;20229;-76
2021/12/22 00:06:08;;;;;;;144.68;62.83;;;;;;;-4.75;100.00;99870.38;2077402;28;20226;-77
2021/12/22 00:07:10;;;;;;;140.63;63.38;;;;;;;-4.76;100.00;99868.75;2069752;28;20228;-76
2021/12/22 00:08:13;;;;;;;140.48;62.15;;;;;;;-4.79;100.00;99868.28;2069807;28;20224;-76
2021/12/22 00:09:14;;;;;;;140.90;63.28;;;;;;;-4.77;100.00;99874.94;2070007;28;20220;-76
2021/12/22 00:10:18;;;;;;;137.40;63.73;;;;;;;-4.78;100.00;99868.09;2077821;28;20760;-77
2021/12/22 00:11:21;;;;;;;148.43;65.40;;;;;;;-4.77;100.00;99871.53;2077500;28;20231;-76
2021/12/22 00:12:22;;;;;;;148.18;64.93;;;;;;;-4.78;100.00;99873.31;2075381;28;20231;-77
2021/12/22 00:13:24;;;;;;;152.30;66.00;;;;;;;-4.78;100.00;99878.50;2086034;28;20579;-76
2021/12/22 00:14:25;;;;;;;153.60;65.30;;;;;;;-4.79;100.00;99876.91;2085865;28;20712;-76
2021/12/22 00:15:29;;;;;;;133.80;64.30;;;;;;;-4.80;100.00;99879.69;2077937;28;20682;-76
2021/12/22 00:16:30;;;;;;;144.55;64.40;;;;;;;-4.79;100.00;99882.09;2077715;28;20235;-75
2021/12/22 00:17:32;;;;;;;148.47;66.30;;;;;;;-4.74;100.00;99884.19;2077810;28;20215;-76
2021/12/22 00:18:33;;;;;;;146.07;66.55;;;;;;;-4.77;100.00;99882.75;2078541;28;20723;-76
2021/12/22 00:19:36;;;;;;;160.63;67.07;;;;;;;-4.77;100.00;99884.56;2077909;28;20706;-76
2021/12/22 00:20:37;;;;;;;151.40;66.05;;;;;;;-4.82;100.00;99877.25;2077955;28;20458;-76
2021/12/22 00:21:42;;;;;;;141.18;64.47;;;;;;;-4.77;100.00;99881.94;2077410;28;20732;-76
2021/12/22 00:22:43;;;;;;;146.60;65.00;;;;;;;-4.79;100.00;99882.09;2070109;28;20610;-77
2021/12/22 00:23:46;;;;;;;150.70;67.05;;;;;;;-4.80;100.00;99885.69;2086011;28;20236;-76
2021/12/22 00:24:47;;;;;;;144.90;65.95;;;;;;;-4.79;100.00;99892.50;2093411;28;20275;-76
2021/12/22 00:25:48;;;;;;;132.07;62.80;;;;;;;-4.75;100.00;99887.78;2077566;28;20238;-76
2021/12/22 00:26:50;;;;;;;152.68;65.28;;;;;;;-4.76;100.00;99894.78;2078311;28;20241;-76
2021/12/22 00:27:51;;;;;;;149.25;64.88;;;;;;;-4.78;100.00;99891.53;2080118;28;20220;-76
2021/12/22 00:28:54;;;;;;;141.73;63.00;;;;;;;-4.75;100.00;99888.59;2079847;28;20371;-76
2021/12/22 00:29:56;;;;;;;142.35;64.63;;;;;;;-4.76;100.00;99886.16;2079379;28;20306;-76
2021/12/22 00:30:57;;;;;;;139.07;64.85;;;;;;;-4.76;100.00;99879.16;2079058;28;20304;-76
2021/12/22 00:32:09;;;;;;;151.20;65.40;;;;;;;-4.77;100.00;99885.38;2078983;28;20224;-76
2021/12/22 00:33:12;;;;;;;141.02;61.35;;;;;;;-4.74;100.00;99899.81;2078911;28;20228;-76
2021/12/22 00:34:16;;;;;;;148.85;64.30;;;;;;;-4.76;100.00;99884.38;2079219;28;20272;-76
2021/12/22 00:35:23;;;;;;;150.60;66.05;;;;;;;-4.73;100.00;99893.63;2079618;28;20282;-76
2021/12/22 00:36:25;;;;;;;139.13;61.13;;;;;;;-4.75;100.00;99882.56;2078681;28;20227;-76
2021/12/22 00:37:28;;;;;;;135.65;62.25;;;;;;;-4.75;100.00;99882.56;2070993;28;20231;-76
2021/12/22 00:38:29;;;;;;;148.25;62.97;;;;;;;-4.74;100.00;99885.00;2071136;28;20235;-76
2021/12/22 00:39:31;;;;;;;145.27;64.50;;;;;;;-4.76;100.00;99880.97;2070820;28;20228;-76
2021/12/22 00:40:32;;;;;;;139.52;63.05;;;;;;;-4.73;100.00;99891.00;2079075;28;20242;-77
2021/12/22 00:41:33;;;;;;;145.52;62.10;;;;;;;-4.75;100.00;99886.00;2087288;28;20700;-76
2021/12/22 00:42:36;;;;;;;139.17;62.83;;;;;;;-4.72;100.00;99887.41;2087436;28;20628;-77
2021/12/22 00:43:37;;;;;;;142.55;64.50;;;;;;;-4.74;100.00;99885.00;2070826;28;20228;-76
2021/12/22 00:44:39;;;;;;;144.73;63.40;;;;;;;-4.74;100.00;99884.19;2079155;28;20233;-76
2021/12/22 00:45:40;;;;;;;148.35;65.85;;;;;;;-4.71;100.00;99896.84;2079239;28;20295;-76
2021/12/22 00:46:42;;;;;;;133.48;63.65;;;;;;;-4.75;100.00;99886.00;2079949;28;20319;-76
2021/12/22 00:47:43;;;;;;;148.63;64.95;;;;;;;-4.70;100.00;99885.44;2079084;28;20227;-76
2021/12/22 00:48:45;;;;;;;152.57;66.90;;;;;;;-4.73;100.00;99881.41;2070988;28;20216;-76
2021/12/22 00:49:47;;;;;;;141.65;63.90;;;;;;;-4.72;100.00;99896.03;2079194;28;20643;-76
2021/12/22 00:50:49;;;;;;;138.75;62.95;;;;;;;-4.72;100.00;99893.44;2079912;28;20569;-76
2021/12/22 00:51:51;;;;;;;133.98;62.47;;;;;;;-4.71;100.00;99905.47;2079136;28;20234;-76
2021/12/22 00:52:53;;;;;;;144.55;66.10;;;;;;;-4.71;100.00;99902.06;2078622;28;20231;-77
2021/12/22 00:53:53;;;;;;;152.43;65.50;;;;;;;-4.71;100.00;99908.06;2079040;28;20223;-76
2021/12/22 00:54:55;;;;;;;143.07;61.97;;;;;;;-4.70;100.00;99912.28;2078992;28;20231;-76
2021/12/22 00:55:56;;;;;;;138.77;63.08;;;;;;;-4.68;100.00;99910.34;2078643;28;20228;-76
2021/12/22 00:57:03;;;;;;;146.68;62.78;;;;;;;-4.69;100.00;99903.50;2087320;28;20625;-76
2021/12/22 00:58:04;;;;;;;143.43;63.60;;;;;;;-4.71;100.00;99908.06;2088104;28;20717;-76
2021/12/22 00:59:06;;;;;;;141.67;63.30;;;;;;;-4.71;100.00;99902.84;2087285;28;20623;-75
2021/12/22 01:00:09;;;;;;;144.07;63.65;;;;;;;-4.71;100.00;99902.84;2078612;28;20235;-77
2021/12/22 01:01:11;;;;;;;129.40;59.90;;;;;;;-4.71;100.00;99900.25;2078963;28;20231;-77
2021/12/22 01:02:15;;;;;;;139.75;61.80;;;;;;;-4.69;100.00;99903.50;2087222;28;20222;-76
2021/12/22 01:03:17;;;;;;;140.30;61.75;;;;;;;-4.65;100.00;99904.75;2094799;28;20298;-76
2021/12/22 01:04:19;;;;;;;135.98;61.15;;;;;;;-4.60;100.00;99894.66;2079911;28;20235;-76
2021/12/22 01:05:20;;;;;;;146.45;63.55;;;;;;;-4.62;100.00;99904.41;2078949;28;20223;-76
2021/12/22 01:06:23;;;;;;;145.00;63.35;;;;;;;-4.64;100.00;99898.56;2070750;28;20612;-76
2021/12/22 01:07:24;;;;;;;146.63;62.88;;;;;;;-4.66;100.00;99907.53;2070336;28;20224;-76
2021/12/22 01:08:26;;;;;;;141.97;63.30;;;;;;;-4.67;100.00;99898.13;2079074;28;20228;-76
2021/12/22 01:09:27;;;;;;;136.57;61.20;;;;;;;-4.66;100.00;99902.34;2079699;28;20358;-76
2021/12/22 01:10:31;;;;;;;132.30;59.47;;;;;;;-4.66;100.00;99900.53;2079807;28;20294;-76
2021/12/22 01:11:33;;;;;;;145.82;62.03;;;;;;;-4.63;100.00;99902.78;2078854;28;20226;-76
2021/12/22 01:12:34;;;;;;;139.67;61.20;;;;;;;-4.61;100.00;99913.03;2086949;28;20257;-76
2021/12/22 01:13:35;;;;;;;146.32;61.47;;;;;;;-4.61;100.00;99913.81;2095414;28;20217;-76
2021/12/22 01:14:38;;;;;;;132.73;59.47;;;;;;;-4.66;100.00;99915.34;2078979;28;20720;-76
2021/12/22 01:15:39;;;;;;;140.80;61.92;;;;;;;-4.63;100.00;99912.41;2078410;28;20471;-77
2021/12/22 01:16:46;;;;;;;135.80;60.15;;;;;;;-4.61;100.00;99918.22;2085676;28;20227;-76
2021/12/22 01:17:57;;;;;;;136.25;60.65;;;;;;;-4.64;100.00;99906.38;2078821;28;20647;-76
2021/12/22 01:19:03;;;;;;;137.20;60.30;;;;;;;-4.61;100.00;99910.41;2078364;28;20574;-76
2021/12/22 01:20:10;;;;;;;138.95;61.08;;;;;;;-4.62;100.00;99909.59;2070472;28;20738;-76
2021/12/22 01:21:17;;;;;;;138.00;60.13;;;;;;;-4.59;100.00;99908.47;2071119;28;20255;-76
2021/12/22 01:22:27;;;;;;;139.00;60.95;;;;;;;-4.56;100.00;99924.53;2071534;28;20812;-76
2021/12/22 01:23:34;;;;;;;132.77;59.20;;;;;;;-4.56;100.00;99914.13;2078679;28;20228;-76
2021/12/22 01:24:35;;;;;;;135.73;60.53;;;;;;;-4.56;100.00;99911.50;2078867;28;20227;-76
2021/12/22 01:25:43;;;;;;;125.65;59.55;;;;;;;-4.56;100.00;99914.13;2087154;28;20227;-76
2021/12/22 01:26:49;;;;;;;134.13;60.92;;;;;;;-4.56;100.00;99911.50;2085700;28;20226;-76
2021/12/22 01:27:52;;;;;;;126.53;59.83;;;;;;;-4.52;100.00;99916.34;2079627;28;20222;-76
2021/12/22 01:28:52;;;;;;;126.50;59.80;;;;;;;-4.51;100.00;99912.78;2078397;28;20304;-77
2021/12/22 01:29:54;;;;;;;126.63;60.80;;;;;;;-4.48;100.00;99920.25;2078969;28;20245;-76
2021/12/22 01:31:01;;;;;;;124.50;57.17;;;;;;;-4.51;100.00;99921.41;2078561;28;20293;-76
2021/12/22 01:32:03;;;;;;;132.02;58.92;;;;;;;-4.49;100.00;99919.44;2078675;28;20710;-77
2021/12/22 01:33:05;;;;;;;129.18;59.42;;;;;;;-4.48;100.00;99925.44;2078877;28;20222;-77
2021/12/22 01:34:06;;;;;;;123.80;58.08;;;;;;;-4.48;100.00;99925.44;2078937;28;20241;-76
2021/12/22 01:35:11;;;;;;;128.70;59.07;;;;;;;-4.47;100.00;99932.28;2078953;28;20330;-76
2021/12/22 01:36:12;;;;;;;129.70;60.50;;;;;;;-4.47;100.00;99927.88;2078748;28;20231;-76
2021/12/22 01:37:13;;;;;;;121.47;58.23;;;;;;;-4.46;100.00;99933.88;2078703;28;20219;-76
2021/12/22 01:38:15;;;;;;;119.35;58.03;;;;;;;-4.47;100.00;99930.47;2078745;28;20576;-76
2021/12/22 01:39:17;;;;;;;120.20;58.08;;;;;;;-4.49;100.00;99926.44;2078788;28;20250;-76
2021/12/22 01:40:19;;;;;;;129.35;57.95;;;;;;;-4.50;100.00;99922.22;2078950;28;20259;-77
2021/12/22 01:41:20;;;;;;;133.07;58.85;;;;;;;-4.46;100.00;99926.06;2078764;28;20230;-76
2021/12/22 01:42:22;;;;;;;132.23;58.65;;;;;;;-4.45;100.00;99932.91;2070462;28;20234;-77
2021/12/22 01:43:24;;;;;;;139.45;59.63;;;;;;;-4.45;100.00;99927.69;2078285;28;20227;-77
2021/12/22 01:44:30;;;;;;;122.70;59.05;;;;;;;-4.45;100.00;99927.69;2079359;28;20223;-76
2021/12/22 01:45:51;;;;;;;118.10;58.30;;;;;;;-4.47;100.00;99927.88;2079362;28;20246;-76
2021/12/22 01:49:49;;;;;;;134.00;58.88;;;;;;;-4.46;100.00;99923.47;2062694;28;20669;-77
2021/12/22 01:50:55;;;;;;;135.30;59.00;;;;;;;-4.47;100.00;99932.28;2078562;28;20227;-76
2021/12/22 01:52:02;;;;;;;124.38;57.03;;;;;;;-4.46;100.00;99923.47;2078255;28;20223;-76
2021/12/22 01:53:06;;;;;;;120.28;56.92;;;;;;;-4.47;100.00;99919.25;2071068;28;20287;-76
2021/12/22 01:54:12;;;;;;;131.35;59.30;;;;;;;-4.44;100.00;99918.88;2078869;28;20223;-76
2021/12/22 01:55:25;;;;;;;122.13;57.10;;;;;;;-4.43;100.00;99925.72;2079488;28;20700;-76
2021/12/22 01:56:30;;;;;;;119.80;56.55;;;;;;;-4.43;100.00;99925.72;2086441;28;20218;-76
2021/12/22 01:57:32;;;;;;;121.38;57.17;;;;;;;-4.44;100.00;99930.09;2078586;28;20280;-76
2021/12/22 01:58:36;;;;;;;126.43;59.40;;;;;;;-4.46;100.00;99920.88;2078731;28;20285;-76
2021/12/22 01:59:39;;;;;;;126.53;57.22;;;;;;;-4.47;100.00;99922.66;2086279;28;20711;-77
2021/12/22 02:00:41;;;;;;;129.65;56.22;;;;;;;-4.46;100.00;99920.88;2079157;28;20582;-76
2021/12/22 02:01:42;;;;;;;119.45;55.03;;;;;;;-4.44;100.00;99921.50;2079460;28;20227;-76
2021/12/22 02:02:44;;;;;;;121.30;56.40;;;;;;;-4.45;100.00;99925.88;2079476;28;20211;-76
2021/12/22 02:03:49;;;;;;;124.03;56.53;;;;;;;-4.46;100.00;99926.06;2079312;28;20701;-76
2021/12/22 02:04:51;;;;;;;122.03;55.67;;;;;;;-4.44;100.00;99924.91;2079175;28;20290;-76
2021/12/22 02:05:52;;;;;;;122.97;56.55;;;;;;;-4.39;100.00;99927.00;2077956;28;20309;-77
2021/12/22 02:06:54;;;;;;;114.20;55.73;;;;;;;-4.41;100.00;99921.97;2078514;28;20239;-77
2021/12/22 02:07:57;;;;;;;116.05;55.58;;;;;;;-4.39;100.00;99925.19;2077645;28;20234;-77
2021/12/22 02:08:59;;;;;;;127.15;57.60;;;;;;;-4.40;100.00;99930.59;2078502;28;20234;-76
2021/12/22 02:10:11;;;;;;;134.02;58.00;;;;;;;-4.41;100.00;99927.16;2078473;28;20253;-77
2021/12/22 02:11:15;;;;;;;124.93;55.35;;;;;;;-4.41;100.00;99926.38;2078747;28;20342;-76
2021/12/22 02:12:16;;;;;;;122.75;55.83;;;;;;;-4.44;100.00;99922.28;2079360;28;20226;-76
2021/12/22 02:13:23;;;;;;;120.90;54.63;;;;;;;-4.40;100.00;99927.97;2078387;28;20230;-76
2021/12/22 02:14:23;;;;;;;127.43;56.50;;;;;;;-4.42;100.00;99924.75;2078235;28;20495;-76
2021/12/22 02:15:29;;;;;;;121.13;56.63;;;;;;;-4.43;100.00;99923.09;2078375;28;20725;-77
2021/12/22 02:16:33;;;;;;;119.60;55.95;;;;;;;-4.40;100.00;99922.78;2078539;28;20227;-76
2021/12/22 02:17:39;;;;;;;127.50;57.20;;;;;;;-4.41;100.00;99915.94;2078526;28;20243;-76
2021/12/22 02:18:43;;;;;;;125.43;57.53;;;;;;;-4.45;100.00;99917.28;2078076;28;20694;-77
2021/12/22 02:19:48;;;;;;;113.28;53.17;;;;;;;-4.45;100.00;99922.47;2078356;28;20685;-76
2021/12/22 02:20:49;;;;;;;126.30;54.95;;;;;;;-4.44;100.00;99921.50;2087100;28;20227;-76
2021/12/22 02:21:56;;;;;;;116.57;56.03;;;;;;;-4.45;100.00;99917.28;2086641;28;20219;-76
2021/12/22 02:22:57;;;;;;;119.80;56.40;;;;;;;-4.44;100.00;99913.69;2078655;28;20306;-76
2021/12/22 02:23:59;;;;;;;123.78;57.00;;;;;;;-4.43;100.00;99921.34;2086571;28;20245;-76
2021/12/22 02:25:06;;;;;;;113.85;55.33;;;;;;;-4.42;100.00;99915.13;2078654;28;20226;-76
2021/12/22 02:26:12;;;;;;;120.85;54.83;;;;;;;-4.46;100.00;99911.25;2078190;28;20599;-77
2021/12/22 02:27:22;;;;;;;128.65;57.08;;;;;;;-4.42;100.00;99919.53;2079298;28;20231;-76
2021/12/22 02:28:28;;;;;;;122.93;55.42;;;;;;;-4.42;100.00;99911.72;2086178;28;20317;-77
2021/12/22 02:29:35;;;;;;;114.30;55.80;;;;;;;-4.42;100.00;99909.94;2078391;28;20771;-77
2021/12/22 02:30:37;;;;;;;121.28;54.75;;;;;;;-4.43;100.00;99913.53;2078534;28;20224;-76
2021/12/22 02:31:44;;;;;;;120.45;55.53;;;;;;;-4.45;100.00;99904.25;2077906;28;20232;-77
2021/12/22 02:34:03;;;;;;;126.90;58.08;;;;;;;-4.43;100.00;99908.31;2075887;28;20253;-76
2021/12/22 02:35:06;;;;;;;125.40;57.55;;;;;;;-4.44;100.00;99908.47;2078366;28;20234;-76
2021/12/22 02:36:11;;;;;;;119.10;56.33;;;;;;;-4.46;100.00;99905.25;2069835;28;20242;-77
2021/12/22 02:37:16;;;;;;;129.77;58.83;;;;;;;-4.42;100.00;99914.34;2078444;28;20285;-77
2021/12/22 02:38:18;;;;;;;112.88;54.65;;;;;;;-4.43;100.00;99913.53;2078271;28;20227;-76
2021/12/22 02:39:19;;;;;;;135.10;57.75;;;;;;;-4.42;100.00;99915.13;2078261;28;20593;-76
2021/12/22 02:40:25;;;;;;;115.30;55.50;;;;;;;-4.41;100.00;99918.56;2078117;28;20223;-76
2021/12/22 02:41:29;;;;;;;117.55;57.33;;;;;;;-4.37;100.00;99912.00;2078100;28;20215;-77
2021/12/22 02:42:33;;;;;;;118.80;56.00;;;;;;;-4.40;100.00;99907.16;2078991;28;20227;-76
2021/12/22 02:43:35;;;;;;;120.82;55.13;;;;;;;-4.41;100.00;99915.94;2078215;28;20264;-76
2021/12/22 02:44:36;;;;;;;130.38;57.03;;;;;;;-4.41;100.00;99915.94;2086608;28;20702;-76
2021/12/22 02:45:38;;;;;;;120.57;56.53;;;;;;;-4.42;100.00;99917.75;2085991;28;20238;-77
2021/12/22 02:46:40;;;;;;;129.40;58.28;;;;;;;-4.43;100.00;99918.72;2078220;28;20228;-76
2021/12/22 02:47:42;;;;;;;132.18;58.38;;;;;;;-4.43;100.00;99923.09;2086473;28;20219;-76
2021/12/22 02:48:44;;;;;;;127.88;56.78;;;;;;;-4.42;100.00;99919.53;2079108;28;20228;-76
2021/12/22 02:49:45;;;;;;;123.20;56.15;;;;;;;-4.45;100.00;99909.47;2077530;28;20224;-77
2021/12/22 02:50:48;;;;;;;130.65;58.55;;;;;;;-4.40;100.00;99920.97;2078168;28;20700;-76
2021/12/22 02:51:48;;;;;;;133.30;59.00;;;;;;;-4.40;100.00;99923.56;2086145;28;20289;-76
2021/12/22 02:53:02;;;;;;;129.17;59.00;;;;;;;-4.40;100.00;99914.97;2078324;28;20305;-76
2021/12/22 02:54:10;;;;;;;118.00;57.40;;;;;;;-4.38;100.00;99915.59;2078048;28;20254;-76
2021/12/22 02:55:11;;;;;;;139.23;58.38;;;;;;;-4.38;100.00;99916.38;2078671;28;20678;-76
2021/12/22 02:56:26;;;;;;;127.47;55.50;;;;;;;-4.39;100.00;99919.19;2086288;28;20573;-76
2021/12/22 02:57:31;;;;;;;131.20;57.80;;;;;;;-4.41;100.00;99921.16;2077775;28;20239;-76
2021/12/22 02:58:40;;;;;;;128.90;58.85;;;;;;;-4.42;100.00;99925.56;2078333;28;20223;-76
2021/12/22 02:59:54;;;;;;;132.82;58.53;;;;;;;-4.45;100.00;99923.28;2078553;28;20666;-76
2021/12/22 03:01:09;;;;;;;128.30;58.35;;;;;;;-4.45;100.00;99925.09;2069657;28;20231;-77
2021/12/22 03:02:19;;;;;;;132.60;60.08;;;;;;;-4.42;100.00;99924.75;2063448;28;20227;-77
2021/12/22 03:03:32;;;;;;;124.72;58.88;;;;;;;-4.46;100.00;99923.47;2070271;28;20220;-76
2021/12/22 03:04:43;;;;;;;142.27;60.92;;;;;;;-4.45;100.00;99925.09;2077878;28;20744;-76
2021/12/22 03:05:44;;;;;;;126.47;57.75;;;;;;;-4.39;100.00;99919.19;2070968;28;20655;-76
2021/12/22 03:06:54;;;;;;;131.77;59.80;;;;;;;-4.41;100.00;99924.56;2078062;28;20524;-76
2021/12/22 03:07:56;;;;;;;125.35;58.80;;;;;;;-4.41;100.00;99918.56;2085870;28;20665;-76
2021/12/22 03:08:57;;;;;;;137.98;60.03;;;;;;;-4.43;100.00;99923.09;2078011;28;20229;-76
2021/12/22 03:10:00;;;;;;;128.98;58.65;;;;;;;-4.42;100.00;99919.53;2069951;28;20227;-77
2021/12/22 03:11:02;;;;;;;136.90;59.83;;;;;;;-4.40;100.00;99922.78;2077903;28;20231;-76
2021/12/22 03:12:05;;;;;;;124.28;58.08;;;;;;;-4.45;100.00;99915.47;2078235;28;20222;-76
2021/12/22 03:13:08;;;;;;;147.68;60.53;;;;;;;-4.40;100.00;99917.56;2078802;28;20590;-76
2021/12/22 03:14:08;;;;;;;130.43;58.20;;;;;;;-4.41;100.00;99915.94;2078499;28;20234;-77
2021/12/22 03:15:11;;;;;;;130.20;60.30;;;;;;;-4.43;100.00;99912.69;2078214;28;20281;-77
2021/12/22 03:16:11;;;;;;;133.85;60.15;;;;;;;-4.42;100.00;99920.34;2078087;28;23008;-76
2021/12/22 03:17:13;;;;;;;132.07;59.83;;;;;;;-4.42;100.00;99909.13;2077974;28;20258;-76
2021/12/22 03:18:14;;;;;;;140.02;61.60;;;;;;;-4.43;100.00;99905.72;2077925;28;20227;-76
2021/12/22 03:19:17;;;;;;;148.63;62.67;;;;;;;-4.42;100.00;99909.13;2078091;28;20317;-76
2021/12/22 03:20:19;;;;;;;137.65;61.90;;;;;;;-4.42;100.00;99915.13;2077977;28;20219;-76
2021/12/22 03:21:22;;;;;;;136.98;62.47;;;;;;;-4.43;100.00;99904.88;2078126;28;20223;-76
2021/12/22 03:22:24;;;;;;;138.95;61.15;;;;;;;-4.42;100.00;99919.53;2077624;28;20607;-76
2021/12/22 03:23:26;;;;;;;133.25;60.10;;;;;;;-4.37;100.00;99923.22;2069879;28;20224;-77
2021/12/22 03:24:28;;;;;;;138.07;61.67;;;;;;;-4.37;100.00;99930.22;2069841;28;20748;-76
2021/12/22 03:25:30;;;;;;;132.32;61.13;;;;;;;-4.37;100.00;99923.22;2070332;28;20294;-76
2021/12/22 03:26:30;;;;;;;130.35;59.47;;;;;;;-4.36;100.00;99924.00;2069879;28;20219;-76
2021/12/22 03:27:32;;;;;;;132.00;58.63;;;;;;;-4.37;100.00;99922.41;2069715;28;20331;-76
2021/12/22 03:28:35;;;;;;;148.32;62.85;;;;;;;-4.37;100.00;99919.81;2078171;28;20627;-76
2021/12/22 03:29:38;;;;;;;143.10;61.40;;;;;;;-4.36;100.00;99918.81;2078638;28;20291;-76
2021/12/22 03:30:39;;;;;;;137.88;62.03;;;;;;;-4.35;100.00;99920.44;2078379;28;20655;-77
2021/12/22 03:31:41;;;;;;;155.00;64.13;;;;;;;-4.33;100.00;99913.25;2078865;28;20578;-76
2021/12/22 03:32:42;;;;;;;143.75;61.20;;;;;;;-4.31;100.00;99927.72;2078051;28;20792;-76
2021/12/22 03:33:44;;;;;;;156.10;63.13;;;;;;;-4.33;100.00;99921.88;2077950;28;20602;-77
2021/12/22 03:34:46;;;;;;;145.50;59.97;;;;;;;-4.33;100.00;99918.47;2086345;28;20222;-76
2021/12/22 03:35:48;;;;;;;143.68;62.58;;;;;;;-4.31;100.00;99922.50;2077980;28;20749;-76
2021/12/22 03:36:49;;;;;;;134.07;60.40;;;;;;;-4.30;100.00;99928.53;2078226;28;20227;-76
2021/12/22 03:37:55;;;;;;;140.65;60.72;;;;;;;-4.33;100.00;99928.88;2077952;28;20310;-76
2021/12/22 03:38:56;;;;;;;142.02;62.70;;;;;;;-4.34;100.00;99922.06;2069980;28;20239;-76
2021/12/22 03:39:57;;;;;;;143.13;62.10;;;;;;;-4.34;100.00;99927.28;2078180;28;20326;-76
2021/12/22 03:40:58;;;;;;;146.70;63.20;;;;;;;-4.31;100.00;99924.31;2078705;28;20226;-77
2021/12/22 03:42:02;;;;;;;134.43;60.00;;;;;;;-4.30;100.00;99929.34;2078077;28;20259;-76
2021/12/22 03:43:03;;;;;;;138.63;60.95;;;;;;;-4.30;100.00;99920.72;2077845;28;20545;-76
2021/12/22 03:44:06;;;;;;;141.43;61.53;;;;;;;-4.31;100.00;99921.69;2078777;28;20223;-76
2021/12/22 03:45:07;;;;;;;136.25;59.95;;;;;;;-4.36;100.00;99934.44;2077479;28;20232;-76
2021/12/22 03:46:09;;;;;;;141.82;61.05;;;;;;;-4.39;100.00;99925.19;2077938;28;20240;-77
2021/12/22 03:47:10;;;;;;;134.57;62.42;;;;;;;-4.42;100.00;99929.97;2069765;28;20320;-76
2021/12/22 03:48:12;;;;;;;149.90;61.93;;;;;;;-4.44;100.00;99937.91;2069774;28;20269;-76
2021/12/22 03:49:14;;;;;;;144.93;61.97;;;;;;;-4.45;100.00;99935.50;2069931;28;20224;-76
2021/12/22 03:50:17;;;;;;;143.45;64.47;;;;;;;-4.50;100.00;99935.25;2077923;28;20756;-76
2021/12/22 03:51:19;;;;;;;137.55;60.60;;;;;;;-4.55;100.00;99928.75;2078104;28;20230;-76
2021/12/22 03:52:19;;;;;;;133.35;59.80;;;;;;;-4.56;100.00;99934.94;2078925;28;20223;-76
2021/12/22 03:53:23;;;;;;;140.33;61.77;;;;;;;-4.53;100.00;99943.38;2078693;28;20254;-76
2021/12/22 03:54:24;;;;;;;144.93;60.92;;;;;;;-4.42;100.00;99943.78;2077424;28;20242;-77
2021/12/22 03:55:26;;;;;;;141.73;61.90;;;;;;;-4.38;100.00;99947.63;2077965;28;20234;-77
2021/12/22 03:56:34;;;;;;;136.75;59.38;;;;;;;-4.40;100.00;99943.59;2077911;28;20246;-77
2021/12/22 03:57:36;;;;;;;135.45;59.83;;;;;;;-4.40;100.00;99947.00;2078398;28;20658;-76
2021/12/22 03:58:37;;;;;;;130.18;57.78;;;;;;;-4.38;100.00;99939.81;2077441;28;20216;-77
2021/12/22 03:59:38;;;;;;;132.60;58.73;;;;;;;-4.40;100.00;99941.00;2069768;28;20224;-76
2021/12/22 04:00:41;;;;;;;126.93;58.33;;;;;;;-4.36;100.00;99947.47;2077988;28;20227;-77
2021/12/22 04:01:42;;;;;;;135.55;58.08;;;;;;;-4.32;100.00;99943.53;2078077;28;21214;-76
2021/12/22 04:02:43;;;;;;;132.40;59.50;;;;;;;-4.30;100.00;99949.38;2071346;28;20306;-77
2021/12/22 04:03:49;;;;;;;134.43;58.53;;;;;;;-4.22;100.00;99946.69;2071411;28;20228;-77
2021/12/22 04:04:50;;;;;;;129.48;57.63;;;;;;;-4.25;100.00;99941.84;2079436;28;20223;-77
2021/12/22 04:05:52;;;;;;;125.35;56.95;;;;;;;-4.28;100.00;99944.78;2079645;28;20302;-76
2021/12/22 04:06:52;;;;;;;133.98;58.58;;;;;;;-4.27;100.00;99944.59;2078959;28;20238;-76
2021/12/22 04:07:55;;;;;;;128.33;58.23;;;;;;;-4.28;100.00;99934.34;2071267;28;20749;-76
2021/12/22 04:09:00;;;;;;;130.48;58.10;;;;;;;-4.29;100.00;99930.13;2071503;28;20646;-77
2021/12/22 04:10:10;;;;;;;129.27;57.38;;;;;;;-4.24;100.00;99943.44;2071703;28;20641;-76
2021/12/22 04:11:11;;;;;;;126.50;56.72;;;;;;;-4.23;100.00;99926.84;2079028;28;20226;-76
2021/12/22 04:12:13;;;;;;;128.75;58.22;;;;;;;-4.23;100.00;99936.44;2087507;28;20233;-77
2021/12/22 04:13:15;;;;;;;129.15;55.70;;;;;;;-4.28;100.00;99934.34;2079402;28;20226;-76
2021/12/22 04:14:16;;;;;;;128.75;57.95;;;;;;;-4.28;100.00;99923.94;2079666;28;20215;-76
2021/12/22 04:15:17;;;;;;;133.30;55.47;;;;;;;-4.18;100.00;99937.50;2087779;28;20223;-76
2021/12/22 04:16:19;;;;;;;125.88;56.60;;;;;;;-4.21;100.00;99939.66;2080294;28;20307;-76
2021/12/22 04:17:21;;;;;;;127.22;57.20;;;;;;;-4.27;100.00;99938.56;2079442;28;20689;-76
2021/12/22 04:18:23;;;;;;;122.75;57.15;;;;;;;-4.31;100.00;99932.13;2078947;28;20224;-78
2021/12/22 04:19:24;;;;;;;126.95;57.08;;;;;;;-4.32;100.00;99938.31;2079648;28;20226;-76
2021/12/22 04:20:27;;;;;;;129.27;58.43;;;;;;;-4.33;100.00;99934.91;2079392;28;20243;-77
2021/12/22 04:21:29;;;;;;;123.82;55.70;;;;;;;-4.34;100.00;99948.13;2079616;28;20265;-77
2021/12/22 04:22:31;;;;;;;131.48;57.17;;;;;;;-4.36;100.00;99937.03;2080202;28;20233;-76
2021/12/22 04:23:32;;;;;;;141.00;58.05;;;;;;;-4.41;100.00;99934.97;2079313;28;20223;-76
2021/12/22 04:24:35;;;;;;;128.75;55.67;;;;;;;-4.39;100.00;99937.41;2071101;28;20220;-76
2021/12/22 04:25:36;;;;;;;136.25;57.53;;;;;;;-4.35;100.00;99944.66;2079499;28;20612;-76
2021/12/22 04:26:39;;;;;;;129.82;56.97;;;;;;;-4.35;100.00;99949.06;2095293;28;20222;-76
2021/12/22 04:27:40;;;;;;;124.22;56.35;;;;;;;-4.37;100.00;99948.44;2079250;28;20231;-76
2021/12/22 04:28:42;;;;;;;118.33;56.17;;;;;;;-4.37;100.00;99951.84;2079392;28;20246;-77
2021/12/22 04:29:43;;;;;;;122.07;57.40;;;;;;;-4.39;100.00;99951.22;2079321;28;20269;-77
2021/12/22 04:30:49;;;;;;;128.00;57.63;;;;;;;-4.39;100.00;99946.03;2087429;28;20219;-76
2021/12/22 04:31:51;;;;;;;133.90;58.38;;;;;;;-4.39;100.00;99950.44;2086553;28;20830;-76
2021/12/22 04:32:52;;;;;;;129.15;58.17;;;;;;;-4.40;100.00;99954.81;2070492;28;20228;-77
2021/12/22 04:33:54;;;;;;;131.90;58.70;;;;;;;-4.43;100.00;99949.97;2079259;28;20319;-77
2021/12/22 04:34:54;;;;;;;132.63;57.90;;;;;;;-4.36;100.00;99957.88;2079353;28;20235;-76
2021/12/22 04:35:56;;;;;;;134.83;59.80;;;;;;;-4.36;100.00;99953.47;2079260;28;20235;-76
2021/12/22 04:36:58;;;;;;;132.77;58.35;;;;;;;-4.34;100.00;99955.94;2079295;28;20227;-76
2021/12/22 04:38:01;;;;;;;125.28;56.30;;;;;;;-4.22;100.00;99951.88;2079302;28;20605;-76
2021/12/22 04:39:04;;;;;;;122.60;56.08;;;;;;;-4.18;100.00;99955.75;2080035;28;20223;-76
2021/12/22 04:40:08;;;;;;;126.15;56.58;;;;;;;-4.21;100.00;99958.72;2079028;28;20302;-76
2021/12/22 04:41:09;;;;;;;129.57;56.22;;;;;;;-4.23;100.00;99957.28;2078937;28;20224;-77
2021/12/22 04:42:11;;;;;;;126.10;57.90;;;;;;;-4.25;100.00;99957.47;2079104;28;20232;-77
2021/12/22 04:43:12;;;;;;;123.68;56.33;;;;;;;-4.25;100.00;99956.66;2079332;28;20235;-76
2021/12/22 04:44:15;;;;;;;124.57;56.50;;;;;;;-4.24;100.00;99953.88;2079334;28;20658;-76
2021/12/22 04:45:17;;;;;;;146.02;59.53;;;;;;;-4.21;100.00;99953.50;2079937;28;20302;-76
2021/12/22 04:46:20;;;;;;;118.78;54.15;;;;;;;-4.20;100.00;99962.94;2080064;28;20224;-76
2021/12/22 04:47:21;;;;;;;124.10;55.75;;;;;;;-4.23;100.00;99950.28;2079727;28;20230;-76
2021/12/22 04:48:22;;;;;;;118.30;54.97;;;;;;;-4.25;100.00;99949.66;2078871;28;20235;-77